sensor_id;sensor_type;location;lat;lon;timestamp;temperature;humidity
25512;DHT22;13414;44.534;18.700;2022-11-12T00:00:41;5.60;99.90
25512;DHT22;13414;44.534;18.700;2022-11-12T00:03:27;5.60;99.90
25512;DHT22;13414;44.534;18.700;2022-11-12T00:06:14;5.70;99.90
25512;DHT22;13414;44.534;18.700;2022-11-12T00:09:00;5.70;99.90
25512;DHT22;13414;44.534;18.700;2022-11-12T00:11:46;5.70;99.90
25512;DHT22;13414;44.534;18.700;2022-11-12T00:14:31;5.70;99.90
25512;DHT22;13414;44.534;18.700;2022-11-12T00:17:19;5.60;99.90
25512;DHT22;13414;44.534;18.700;2022-11-12T00:20:05;5.60;99.90
25512;DHT22;13414;44.534;18.700;2022-11-12T00:22:53;5.60;99.90
25512;DHT22;13414;44.534;18.700;2022-11-12T00:25:39;5.60;99.90
25512;DHT22;13414;44.534;18.700;2022-11-12T00:28:28;5.50;99.90
25512;DHT22;13414;44.534;18.700;2022-11-12T00:31:13;5.40;99.90
25512;DHT22;13414;44.534;18.700;2022-11-12T00:33:59;5.30;99.90
25512;DHT22;13414;44.534;18.700;2022-11-12T00:36:45;5.30;99.90
25512;DHT22;13414;44.534;18.700;2022-11-12T00:39:32;5.30;99.90
25512;DHT22;13414;44.534;18.700;2022-11-12T00:42:18;5.40;99.90
25512;DHT22;13414;44.534;18.700;2022-11-12T00:45:04;5.40;99.90
25512;DHT22;13414;44.534;18.700;2022-11-12T00:47:52;5.40;99.90
25512;DHT22;13414;44.534;18.700;2022-11-12T00:50:38;5.40;99.90
25512;DHT22;13414;44.534;18.700;2022-11-12T00:53:24;5.40;99.90
25512;DHT22;13414;44.534;18.700;2022-11-12T00:56:11;5.50;99.90
25512;DHT22;13414;44.534;18.700;2022-11-12T00:58:57;5.50;99.90
25512;DHT22;13414;44.534;18.700;2022-11-12T01:01:43;5.50;99.90
25512;DHT22;13414;44.534;18.700;2022-11-12T01:04:29;5.60;99.90
25512;DHT22;13414;44.534;18.700;2022-11-12T01:07:14;5.60;99.90
25512;DHT22;13414;44.534;18.700;2022-11-12T01:10:00;5.50;99.90
25512;DHT22;13414;44.534;18.700;2022-11-12T01:12:47;5.50;99.90
25512;DHT22;13414;44.534;18.700;2022-11-12T01:15:33;5.50;99.90
25512;DHT22;13414;44.534;18.700;2022-11-12T01:18:18;5.60;99.90
25512;DHT22;13414;44.534;18.700;2022-11-12T01:21:04;5.60;99.90
25512;DHT22;13414;44.534;18.700;2022-11-12T01:23:50;5.60;99.90
25512;DHT22;13414;44.534;18.700;2022-11-12T01:26:36;5.50;99.90
25512;DHT22;13414;44.534;18.700;2022-11-12T01:29:23;5.50;99.90
25512;DHT22;13414;44.534;18.700;2022-11-12T01:32:10;5.50;99.90
25512;DHT22;13414;44.534;18.700;2022-11-12T01:34:55;5.60;99.90
25512;DHT22;13414;44.534;18.700;2022-11-12T01:37:41;5.60;99.90
25512;DHT22;13414;44.534;18.700;2022-11-12T01:40:27;5.50;99.90
25512;DHT22;13414;44.534;18.700;2022-11-12T01:43:13;5.50;99.90
25512;DHT22;13414;44.534;18.700;2022-11-12T01:46:00;5.50;99.90
25512;DHT22;13414;44.534;18.700;2022-11-12T01:48:49;5.50;99.90
25512;DHT22;13414;44.534;18.700;2022-11-12T01:51:36;5.60;99.90
25512;DHT22;13414;44.534;18.700;2022-11-12T01:54:21;5.60;99.90
25512;DHT22;13414;44.534;18.700;2022-11-12T01:57:08;5.60;99.90
25512;DHT22;13414;44.534;18.700;2022-11-12T01:59:55;5.70;99.90
25512;DHT22;13414;44.534;18.700;2022-11-12T02:02:44;5.70;99.90
25512;DHT22;13414;44.534;18.700;2022-11-12T02:05:30;5.80;99.90
25512;DHT22;13414;44.534;18.700;2022-11-12T02:08:17;5.80;99.90
25512;DHT22;13414;44.534;18.700;2022-11-12T02:11:14;5.80;99.90
25512;DHT22;13414;44.534;18.700;2022-11-12T02:13:59;5.80;99.90
25512;DHT22;13414;44.534;18.700;2022-11-12T02:16:45;5.80;99.90
25512;DHT22;13414;44.534;18.700;2022-11-12T02:19:34;5.70;99.90
25512;DHT22;13414;44.534;18.700;2022-11-12T02:22:22;5.80;99.90
25512;DHT22;13414;44.534;18.700;2022-11-12T02:25:08;5.90;99.90
25512;DHT22;13414;44.534;18.700;2022-11-12T02:27:56;5.90;99.90
25512;DHT22;13414;44.534;18.700;2022-11-12T02:30:44;5.90;99.90
25512;DHT22;13414;44.534;18.700;2022-11-12T02:33:30;5.90;99.90
25512;DHT22;13414;44.534;18.700;2022-11-12T02:36:16;5.90;99.90
25512;DHT22;13414;44.534;18.700;2022-11-12T02:39:03;5.90;99.90
25512;DHT22;13414;44.534;18.700;2022-11-12T02:41:49;5.90;99.90
25512;DHT22;13414;44.534;18.700;2022-11-12T02:44:35;5.90;99.90
25512;DHT22;13414;44.534;18.700;2022-11-12T02:47:20;5.90;99.90
25512;DHT22;13414;44.534;18.700;2022-11-12T02:50:06;5.80;99.90
25512;DHT22;13414;44.534;18.700;2022-11-12T02:52:53;5.80;99.90
25512;DHT22;13414;44.534;18.700;2022-11-12T02:55:41;5.80;99.90
25512;DHT22;13414;44.534;18.700;2022-11-12T02:58:27;5.90;99.90
25512;DHT22;13414;44.534;18.700;2022-11-12T03:01:13;5.90;99.90
25512;DHT22;13414;44.534;18.700;2022-11-12T03:03:59;5.80;99.90
25512;DHT22;13414;44.534;18.700;2022-11-12T03:06:44;5.90;99.90
25512;DHT22;13414;44.534;18.700;2022-11-12T03:09:32;5.90;99.90
25512;DHT22;13414;44.534;18.700;2022-11-12T03:12:19;5.80;99.90
25512;DHT22;13414;44.534;18.700;2022-11-12T03:15:05;5.80;99.90
25512;DHT22;13414;44.534;18.700;2022-11-12T03:17:51;5.90;99.90
25512;DHT22;13414;44.534;18.700;2022-11-12T03:20:37;5.80;99.90
25512;DHT22;13414;44.534;18.700;2022-11-12T03:23:24;5.90;99.90
25512;DHT22;13414;44.534;18.700;2022-11-12T03:26:10;5.90;99.90
25512;DHT22;13414;44.534;18.700;2022-11-12T03:28:57;6.00;99.90
25512;DHT22;13414;44.534;18.700;2022-11-12T03:31:43;6.00;99.90
25512;DHT22;13414;44.534;18.700;2022-11-12T03:34:29;6.00;99.90
25512;DHT22;13414;44.534;18.700;2022-11-12T03:37:15;6.10;99.90
25512;DHT22;13414;44.534;18.700;2022-11-12T03:40:00;6.10;99.90
25512;DHT22;13414;44.534;18.700;2022-11-12T03:42:47;6.10;99.90
25512;DHT22;13414;44.534;18.700;2022-11-12T03:45:34;6.20;99.90
25512;DHT22;13414;44.534;18.700;2022-11-12T03:48:20;6.10;99.90
25512;DHT22;13414;44.534;18.700;2022-11-12T03:51:05;6.00;99.90
25512;DHT22;13414;44.534;18.700;2022-11-12T03:53:51;6.10;99.90
25512;DHT22;13414;44.534;18.700;2022-11-12T03:56:36;6.10;99.90
25512;DHT22;13414;44.534;18.700;2022-11-12T03:59:22;6.10;99.90
25512;DHT22;13414;44.534;18.700;2022-11-12T04:02:09;6.10;99.90
25512;DHT22;13414;44.534;18.700;2022-11-12T04:04:57;6.10;99.90
25512;DHT22;13414;44.534;18.700;2022-11-12T04:08:00;6.10;99.90
25512;DHT22;13414;44.534;18.700;2022-11-12T04:11:05;6.20;99.90
25512;DHT22;13414;44.534;18.700;2022-11-12T04:13:51;6.20;99.90
25512;DHT22;13414;44.534;18.700;2022-11-12T04:16:36;6.20;99.90
25512;DHT22;13414;44.534;18.700;2022-11-12T04:19:41;6.20;99.90
25512;DHT22;13414;44.534;18.700;2022-11-12T04:22:44;6.20;99.90
25512;DHT22;13414;44.534;18.700;2022-11-12T04:25:30;6.20;99.90
25512;DHT22;13414;44.534;18.700;2022-11-12T04:28:33;6.20;99.90
25512;DHT22;13414;44.534;18.700;2022-11-12T04:31:18;6.20;99.90
25512;DHT22;13414;44.534;18.700;2022-11-12T04:34:03;6.20;99.90
25512;DHT22;13414;44.534;18.700;2022-11-12T04:37:04;6.20;99.90
25512;DHT22;13414;44.534;18.700;2022-11-12T04:39:50;6.20;99.90
25512;DHT22;13414;44.534;18.700;2022-11-12T04:42:36;6.10;99.90
25512;DHT22;13414;44.534;18.700;2022-11-12T04:45:39;6.10;99.90
25512;DHT22;13414;44.534;18.700;2022-11-12T04:48:26;6.20;99.90
25512;DHT22;13414;44.534;18.700;2022-11-12T04:51:11;6.20;99.90
25512;DHT22;13414;44.534;18.700;2022-11-12T04:54:13;6.30;99.90
25512;DHT22;13414;44.534;18.700;2022-11-12T04:56:59;6.30;99.90
25512;DHT22;13414;44.534;18.700;2022-11-12T04:59:45;6.30;99.90
25512;DHT22;13414;44.534;18.700;2022-11-12T05:02:31;6.40;99.90
25512;DHT22;13414;44.534;18.700;2022-11-12T05:05:16;6.40;99.90
25512;DHT22;13414;44.534;18.700;2022-11-12T05:08:02;6.40;99.90
25512;DHT22;13414;44.534;18.700;2022-11-12T05:10:49;6.40;99.90
25512;DHT22;13414;44.534;18.700;2022-11-12T05:13:35;6.40;99.90
25512;DHT22;13414;44.534;18.700;2022-11-12T05:16:21;6.40;99.90
25512;DHT22;13414;44.534;18.700;2022-11-12T05:19:06;6.40;99.90
25512;DHT22;13414;44.534;18.700;2022-11-12T05:21:52;6.40;99.90
25512;DHT22;13414;44.534;18.700;2022-11-12T05:24:50;6.40;99.90
25512;DHT22;13414;44.534;18.700;2022-11-12T05:27:37;6.40;99.90
25512;DHT22;13414;44.534;18.700;2022-11-12T05:30:23;6.50;99.90
25512;DHT22;13414;44.534;18.700;2022-11-12T05:33:08;6.50;99.90
25512;DHT22;13414;44.534;18.700;2022-11-12T05:35:54;6.60;99.90
25512;DHT22;13414;44.534;18.700;2022-11-12T05:38:40;6.60;99.90
25512;DHT22;13414;44.534;18.700;2022-11-12T05:41:26;6.60;99.90
25512;DHT22;13414;44.534;18.700;2022-11-12T05:44:13;6.50;99.90
25512;DHT22;13414;44.534;18.700;2022-11-12T05:46:59;6.50;99.90
25512;DHT22;13414;44.534;18.700;2022-11-12T05:49:45;6.50;99.90
25512;DHT22;13414;44.534;18.700;2022-11-12T05:52:30;6.50;99.90
25512;DHT22;13414;44.534;18.700;2022-11-12T05:55:16;6.50;99.90
25512;DHT22;13414;44.534;18.700;2022-11-12T05:58:03;6.50;99.90
25512;DHT22;13414;44.534;18.700;2022-11-12T06:00:50;6.50;99.90
25512;DHT22;13414;44.534;18.700;2022-11-12T06:03:36;6.50;99.90
25512;DHT22;13414;44.534;18.700;2022-11-12T06:06:22;6.50;99.90
25512;DHT22;13414;44.534;18.700;2022-11-12T06:09:09;6.60;99.90
25512;DHT22;13414;44.534;18.700;2022-11-12T06:11:55;6.60;99.90
25512;DHT22;13414;44.534;18.700;2022-11-12T06:14:40;6.70;99.90
25512;DHT22;13414;44.534;18.700;2022-11-12T06:17:27;6.80;99.90
25512;DHT22;13414;44.534;18.700;2022-11-12T06:20:13;6.90;99.90
25512;DHT22;13414;44.534;18.700;2022-11-12T06:22:59;6.90;99.90
25512;DHT22;13414;44.534;18.700;2022-11-12T06:25:44;7.00;99.90
25512;DHT22;13414;44.534;18.700;2022-11-12T06:28:31;7.00;99.90
25512;DHT22;13414;44.534;18.700;2022-11-12T06:31:17;6.90;99.90
25512;DHT22;13414;44.534;18.700;2022-11-12T06:34:04;6.90;99.90
25512;DHT22;13414;44.534;18.700;2022-11-12T06:36:51;6.80;99.90
25512;DHT22;13414;44.534;18.700;2022-11-12T06:39:36;6.80;99.90
25512;DHT22;13414;44.534;18.700;2022-11-12T06:42:22;6.70;99.90
25512;DHT22;13414;44.534;18.700;2022-11-12T06:45:08;6.70;99.90
25512;DHT22;13414;44.534;18.700;2022-11-12T06:47:56;6.80;99.90
25512;DHT22;13414;44.534;18.700;2022-11-12T06:50:43;7.00;99.90
25512;DHT22;13414;44.534;18.700;2022-11-12T06:53:29;7.20;99.90
25512;DHT22;13414;44.534;18.700;2022-11-12T06:56:14;7.20;99.90
25512;DHT22;13414;44.534;18.700;2022-11-12T06:59:00;7.30;99.90
25512;DHT22;13414;44.534;18.700;2022-11-12T07:01:45;7.40;99.90
25512;DHT22;13414;44.534;18.700;2022-11-12T07:04:31;7.40;99.90
25512;DHT22;13414;44.534;18.700;2022-11-12T07:07:18;7.50;99.90
25512;DHT22;13414;44.534;18.700;2022-11-12T07:10:04;7.60;99.90
25512;DHT22;13414;44.534;18.700;2022-11-12T07:12:52;7.70;99.90
25512;DHT22;13414;44.534;18.700;2022-11-12T07:15:37;7.80;99.90
25512;DHT22;13414;44.534;18.700;2022-11-12T07:18:23;7.90;99.90
25512;DHT22;13414;44.534;18.700;2022-11-12T07:21:09;8.00;99.90
25512;DHT22;13414;44.534;18.700;2022-11-12T07:23:57;8.20;99.90
25512;DHT22;13414;44.534;18.700;2022-11-12T07:26:43;8.30;99.90
25512;DHT22;13414;44.534;18.700;2022-11-12T07:29:29;8.50;99.90
25512;DHT22;13414;44.534;18.700;2022-11-12T07:32:14;8.70;99.90
25512;DHT22;13414;44.534;18.700;2022-11-12T07:35:00;8.80;99.90
25512;DHT22;13414;44.534;18.700;2022-11-12T07:37:46;9.10;99.90
25512;DHT22;13414;44.534;18.700;2022-11-12T07:40:33;9.40;99.90
25512;DHT22;13414;44.534;18.700;2022-11-12T07:43:19;9.60;99.90
25512;DHT22;13414;44.534;18.700;2022-11-12T07:46:05;9.70;99.90
25512;DHT22;13414;44.534;18.700;2022-11-12T07:48:51;9.70;99.90
25512;DHT22;13414;44.534;18.700;2022-11-12T07:51:37;9.80;99.90
25512;DHT22;13414;44.534;18.700;2022-11-12T07:54:22;9.80;99.90
25512;DHT22;13414;44.534;18.700;2022-11-12T07:57:09;9.70;99.90
25512;DHT22;13414;44.534;18.700;2022-11-12T07:59:55;9.80;99.90
25512;DHT22;13414;44.534;18.700;2022-11-12T08:02:40;9.80;99.90
25512;DHT22;13414;44.534;18.700;2022-11-12T08:05:26;9.80;99.90
25512;DHT22;13414;44.534;18.700;2022-11-12T08:08:12;9.80;99.90
25512;DHT22;13414;44.534;18.700;2022-11-12T08:10:57;10.00;99.90
25512;DHT22;13414;44.534;18.700;2022-11-12T08:13:45;10.20;99.90
25512;DHT22;13414;44.534;18.700;2022-11-12T08:16:30;10.40;99.90
25512;DHT22;13414;44.534;18.700;2022-11-12T08:19:16;10.30;99.90
25512;DHT22;13414;44.534;18.700;2022-11-12T08:22:02;10.40;99.90
25512;DHT22;13414;44.534;18.700;2022-11-12T08:24:47;10.40;99.90
25512;DHT22;13414;44.534;18.700;2022-11-12T08:27:33;10.50;99.90
25512;DHT22;13414;44.534;18.700;2022-11-12T08:30:20;10.80;99.90
25512;DHT22;13414;44.534;18.700;2022-11-12T08:33:06;11.10;99.90
25512;DHT22;13414;44.534;18.700;2022-11-12T08:35:51;11.40;99.90
25512;DHT22;13414;44.534;18.700;2022-11-12T08:38:37;11.70;99.90
25512;DHT22;13414;44.534;18.700;2022-11-12T08:41:23;12.00;99.90
25512;DHT22;13414;44.534;18.700;2022-11-12T08:44:08;12.20;99.90
25512;DHT22;13414;44.534;18.700;2022-11-12T08:46:55;12.30;99.90
25512;DHT22;13414;44.534;18.700;2022-11-12T08:49:42;12.10;99.90
25512;DHT22;13414;44.534;18.700;2022-11-12T08:52:27;12.00;99.90
25512;DHT22;13414;44.534;18.700;2022-11-12T08:55:13;11.90;99.90
25512;DHT22;13414;44.534;18.700;2022-11-12T08:57:59;12.00;99.90
25512;DHT22;13414;44.534;18.700;2022-11-12T09:00:46;12.10;99.90
25512;DHT22;13414;44.534;18.700;2022-11-12T09:03:34;12.10;99.90
25512;DHT22;13414;44.534;18.700;2022-11-12T09:06:20;11.90;99.90
25512;DHT22;13414;44.534;18.700;2022-11-12T09:09:05;11.80;99.90
25512;DHT22;13414;44.534;18.700;2022-11-12T09:11:51;11.70;99.90
25512;DHT22;13414;44.534;18.700;2022-11-12T09:14:36;11.70;99.90
25512;DHT22;13414;44.534;18.700;2022-11-12T09:17:22;12.00;99.90
25512;DHT22;13414;44.534;18.700;2022-11-12T09:20:09;12.20;99.90
25512;DHT22;13414;44.534;18.700;2022-11-12T09:22:57;12.30;99.90
25512;DHT22;13414;44.534;18.700;2022-11-12T09:25:42;12.60;99.90
25512;DHT22;13414;44.534;18.700;2022-11-12T09:28:29;12.70;99.90
25512;DHT22;13414;44.534;18.700;2022-11-12T09:31:14;13.10;99.90
25512;DHT22;13414;44.534;18.700;2022-11-12T09:34:00;13.50;99.90
25512;DHT22;13414;44.534;18.700;2022-11-12T09:36:47;13.70;99.90
25512;DHT22;13414;44.534;18.700;2022-11-12T09:39:33;14.00;99.90
25512;DHT22;13414;44.534;18.700;2022-11-12T09:42:20;14.10;99.90
25512;DHT22;13414;44.534;18.700;2022-11-12T09:45:06;14.20;99.90
25512;DHT22;13414;44.534;18.700;2022-11-12T09:47:56;14.10;99.90
25512;DHT22;13414;44.534;18.700;2022-11-12T09:50:45;14.10;99.90
25512;DHT22;13414;44.534;18.700;2022-11-12T09:53:37;14.10;99.90
25512;DHT22;13414;44.534;18.700;2022-11-12T09:56:25;14.20;99.90
25512;DHT22;13414;44.534;18.700;2022-11-12T09:59:11;14.20;99.90
25512;DHT22;13414;44.534;18.700;2022-11-12T10:01:58;13.90;99.90
25512;DHT22;13414;44.534;18.700;2022-11-12T10:04:52;13.80;99.90
25512;DHT22;13414;44.534;18.700;2022-11-12T10:07:43;14.00;99.90
25512;DHT22;13414;44.534;18.700;2022-11-12T10:10:33;14.20;99.90
25512;DHT22;13414;44.534;18.700;2022-11-12T10:13:24;14.20;99.90
25512;DHT22;13414;44.534;18.700;2022-11-12T10:16:17;14.10;99.90
25512;DHT22;13414;44.534;18.700;2022-11-12T10:19:28;14.10;99.90
25512;DHT22;13414;44.534;18.700;2022-11-12T10:22:23;14.10;99.90
25512;DHT22;13414;44.534;18.700;2022-11-12T10:25:12;14.20;99.90
25512;DHT22;13414;44.534;18.700;2022-11-12T10:28:00;14.30;99.90
25512;DHT22;13414;44.534;18.700;2022-11-12T10:30:46;14.20;99.90
25512;DHT22;13414;44.534;18.700;2022-11-12T10:33:32;14.30;99.90
25512;DHT22;13414;44.534;18.700;2022-11-12T10:36:20;14.20;99.90
25512;DHT22;13414;44.534;18.700;2022-11-12T10:39:08;14.10;99.90
25512;DHT22;13414;44.534;18.700;2022-11-12T10:42:00;14.10;99.90
25512;DHT22;13414;44.534;18.700;2022-11-12T10:44:47;14.10;99.90
25512;DHT22;13414;44.534;18.700;2022-11-12T10:47:35;14.20;99.90
25512;DHT22;13414;44.534;18.700;2022-11-12T10:50:28;14.10;99.90
25512;DHT22;13414;44.534;18.700;2022-11-12T10:53:14;14.20;99.90
25512;DHT22;13414;44.534;18.700;2022-11-12T10:56:22;14.30;99.90
25512;DHT22;13414;44.534;18.700;2022-11-12T10:59:09;14.30;99.90
25512;DHT22;13414;44.534;18.700;2022-11-12T11:01:57;14.20;99.90
25512;DHT22;13414;44.534;18.700;2022-11-12T11:04:43;14.30;99.90
25512;DHT22;13414;44.534;18.700;2022-11-12T11:07:29;14.40;99.90
25512;DHT22;13414;44.534;18.700;2022-11-12T11:10:21;14.30;99.90
25512;DHT22;13414;44.534;18.700;2022-11-12T11:13:08;14.20;99.90
25512;DHT22;13414;44.534;18.700;2022-11-12T11:15:58;14.00;99.90
25512;DHT22;13414;44.534;18.700;2022-11-12T11:18:46;13.80;99.90
25512;DHT22;13414;44.534;18.700;2022-11-12T11:21:41;13.70;99.90
25512;DHT22;13414;44.534;18.700;2022-11-12T11:24:33;13.70;99.90
25512;DHT22;13414;44.534;18.700;2022-11-12T11:27:25;13.90;99.90
25512;DHT22;13414;44.534;18.700;2022-11-12T11:30:12;14.30;99.90
25512;DHT22;13414;44.534;18.700;2022-11-12T11:33:02;14.70;99.90
25512;DHT22;13414;44.534;18.700;2022-11-12T11:35:57;15.10;99.90
25512;DHT22;13414;44.534;18.700;2022-11-12T11:38:50;15.40;99.90
25512;DHT22;13414;44.534;18.700;2022-11-12T11:41:44;15.50;99.90
25512;DHT22;13414;44.534;18.700;2022-11-12T11:44:35;15.50;99.90
25512;DHT22;13414;44.534;18.700;2022-11-12T11:47:26;15.50;99.90
25512;DHT22;13414;44.534;18.700;2022-11-12T11:50:19;15.50;99.90
25512;DHT22;13414;44.534;18.700;2022-11-12T11:53:14;15.50;99.90
25512;DHT22;13414;44.534;18.700;2022-11-12T11:56:05;15.50;99.90
25512;DHT22;13414;44.534;18.700;2022-11-12T11:58:59;15.40;99.90
25512;DHT22;13414;44.534;18.700;2022-11-12T12:01:59;15.20;99.90
25512;DHT22;13414;44.534;18.700;2022-11-12T12:04:47;15.30;99.90
25512;DHT22;13414;44.534;18.700;2022-11-12T12:07:35;15.50;99.90
25512;DHT22;13414;44.534;18.700;2022-11-12T12:10:26;15.80;99.90
25512;DHT22;13414;44.534;18.700;2022-11-12T12:13:17;16.20;1.00
25512;DHT22;13414;44.534;18.700;2022-11-12T12:19:10;16.50;99.90
25512;DHT22;13414;44.534;18.700;2022-11-12T12:22:02;16.50;99.90
25512;DHT22;13414;44.534;18.700;2022-11-12T12:24:50;16.20;99.90
25512;DHT22;13414;44.534;18.700;2022-11-12T12:27:41;16.10;99.90
25512;DHT22;13414;44.534;18.700;2022-11-12T12:30:29;15.90;99.90
25512;DHT22;13414;44.534;18.700;2022-11-12T12:33:18;15.80;99.90
25512;DHT22;13414;44.534;18.700;2022-11-12T12:36:05;15.70;99.90
25512;DHT22;13414;44.534;18.700;2022-11-12T12:38:54;15.60;99.90
25512;DHT22;13414;44.534;18.700;2022-11-12T12:41:43;15.30;99.90
25512;DHT22;13414;44.534;18.700;2022-11-12T12:44:34;15.20;1.00
25512;DHT22;13414;44.534;18.700;2022-11-12T12:47:39;15.00;1.00
25512;DHT22;13414;44.534;18.700;2022-11-12T12:50:27;14.70;99.90
25512;DHT22;13414;44.534;18.700;2022-11-12T12:53:17;14.50;1.00
25512;DHT22;13414;44.534;18.700;2022-11-12T12:56:03;14.30;1.00
25512;DHT22;13414;44.534;18.700;2022-11-12T12:58:50;14.10;99.90
25512;DHT22;13414;44.534;18.700;2022-11-12T13:01:37;14.00;31.10
25512;DHT22;13414;44.534;18.700;2022-11-12T13:07:37;13.80;1.00
25512;DHT22;13414;44.534;18.700;2022-11-12T13:10:42;13.80;1.00
25512;DHT22;13414;44.534;18.700;2022-11-12T13:13:31;13.80;99.90
25512;DHT22;13414;44.534;18.700;2022-11-12T13:19:26;13.70;1.00
25512;DHT22;13414;44.534;18.700;2022-11-12T13:25:24;13.90;1.00
25512;DHT22;13414;44.534;18.700;2022-11-12T13:28:10;14.10;99.90
25512;DHT22;13414;44.534;18.700;2022-11-12T13:30:57;14.30;1.00
25512;DHT22;13414;44.534;18.700;2022-11-12T13:33:44;14.40;1.00
25512;DHT22;13414;44.534;18.700;2022-11-12T13:36:31;14.50;29.70
25512;DHT22;13414;44.534;18.700;2022-11-12T13:39:17;14.60;1.00
25512;DHT22;13414;44.534;18.700;2022-11-12T13:42:07;14.70;97.70
25512;DHT22;13414;44.534;18.700;2022-11-12T13:45:13;14.90;99.90
25512;DHT22;13414;44.534;18.700;2022-11-12T13:47:59;15.00;1.00
25512;DHT22;13414;44.534;18.700;2022-11-12T13:50:49;14.90;1.00
25512;DHT22;13414;44.534;18.700;2022-11-12T13:53:37;14.70;1.00
25512;DHT22;13414;44.534;18.700;2022-11-12T13:56:25;14.70;1.00
25512;DHT22;13414;44.534;18.700;2022-11-12T13:59:12;14.70;99.90
25512;DHT22;13414;44.534;18.700;2022-11-12T14:02:01;14.50;1.00
25512;DHT22;13414;44.534;18.700;2022-11-12T14:04:48;14.40;1.00
25512;DHT22;13414;44.534;18.700;2022-11-12T14:07:36;14.20;1.00
25512;DHT22;13414;44.534;18.700;2022-11-12T14:10:29;14.10;1.00
25512;DHT22;13414;44.534;18.700;2022-11-12T14:13:22;14.10;1.00
25512;DHT22;13414;44.534;18.700;2022-11-12T14:16:14;14.00;99.90
25512;DHT22;13414;44.534;18.700;2022-11-12T14:19:07;14.00;99.90
25512;DHT22;13414;44.534;18.700;2022-11-12T14:21:59;13.90;1.00
25512;DHT22;13414;44.534;18.700;2022-11-12T14:24:53;13.80;1.00
25512;DHT22;13414;44.534;18.700;2022-11-12T14:27:45;13.70;99.90
25512;DHT22;13414;44.534;18.700;2022-11-12T14:30:31;13.70;1.00
25512;DHT22;13414;44.534;18.700;2022-11-12T14:33:18;13.60;1.00
25512;DHT22;13414;44.534;18.700;2022-11-12T14:36:04;13.60;1.00
25512;DHT22;13414;44.534;18.700;2022-11-12T14:38:52;13.50;99.90
25512;DHT22;13414;44.534;18.700;2022-11-12T14:41:39;13.40;1.00
25512;DHT22;13414;44.534;18.700;2022-11-12T14:44:32;13.30;1.00
25512;DHT22;13414;44.534;18.700;2022-11-12T14:47:18;13.20;99.90
25512;DHT22;13414;44.534;18.700;2022-11-12T14:50:04;13.10;1.00
25512;DHT22;13414;44.534;18.700;2022-11-12T14:52:52;12.90;99.90
25512;DHT22;13414;44.534;18.700;2022-11-12T14:55:39;12.90;1.00
25512;DHT22;13414;44.534;18.700;2022-11-12T14:58:26;12.80;1.00
25512;DHT22;13414;44.534;18.700;2022-11-12T15:01:21;12.70;99.90
25512;DHT22;13414;44.534;18.700;2022-11-12T15:04:16;12.60;5.60
25512;DHT22;13414;44.534;18.700;2022-11-12T15:07:02;12.50;1.00
25512;DHT22;13414;44.534;18.700;2022-11-12T15:09:47;12.40;1.00
25512;DHT22;13414;44.534;18.700;2022-11-12T15:12:33;12.40;1.00
25512;DHT22;13414;44.534;18.700;2022-11-12T15:15:19;12.30;99.90
25512;DHT22;13414;44.534;18.700;2022-11-12T15:18:13;12.20;1.00
25512;DHT22;13414;44.534;18.700;2022-11-12T15:21:01;12.20;1.00
25512;DHT22;13414;44.534;18.700;2022-11-12T15:23:49;12.10;92.20
25512;DHT22;13414;44.534;18.700;2022-11-12T15:26:36;12.00;99.90
25512;DHT22;13414;44.534;18.700;2022-11-12T15:29:24;11.90;99.90
25512;DHT22;13414;44.534;18.700;2022-11-12T15:32:29;11.80;99.90
25512;DHT22;13414;44.534;18.700;2022-11-12T15:38:23;11.50;99.90
25512;DHT22;13414;44.534;18.700;2022-11-12T15:41:18;11.40;99.90
25512;DHT22;13414;44.534;18.700;2022-11-12T15:44:05;11.40;99.90
25512;DHT22;13414;44.534;18.700;2022-11-12T15:46:52;11.30;99.90
25512;DHT22;13414;44.534;18.700;2022-11-12T15:49:45;11.20;99.90
25512;DHT22;13414;44.534;18.700;2022-11-12T15:52:31;11.20;99.90
25512;DHT22;13414;44.534;18.700;2022-11-12T15:55:18;11.20;99.90
25512;DHT22;13414;44.534;18.700;2022-11-12T15:58:04;11.10;99.90
25512;DHT22;13414;44.534;18.700;2022-11-12T16:00:50;11.10;99.90
25512;DHT22;13414;44.534;18.700;2022-11-12T16:03:36;11.00;99.90
25512;DHT22;13414;44.534;18.700;2022-11-12T16:06:21;11.10;99.90
25512;DHT22;13414;44.534;18.700;2022-11-12T16:09:08;11.00;99.90
25512;DHT22;13414;44.534;18.700;2022-11-12T16:11:55;11.10;99.90
25512;DHT22;13414;44.534;18.700;2022-11-12T16:14:42;11.00;99.90
25512;DHT22;13414;44.534;18.700;2022-11-12T16:17:27;11.00;99.90
25512;DHT22;13414;44.534;18.700;2022-11-12T16:20:14;11.00;99.90
25512;DHT22;13414;44.534;18.700;2022-11-12T16:23:02;10.90;99.90
25512;DHT22;13414;44.534;18.700;2022-11-12T16:25:47;10.80;99.90
25512;DHT22;13414;44.534;18.700;2022-11-12T16:28:35;10.70;99.90
25512;DHT22;13414;44.534;18.700;2022-11-12T16:31:20;10.60;99.90
25512;DHT22;13414;44.534;18.700;2022-11-12T16:34:06;10.50;99.90
25512;DHT22;13414;44.534;18.700;2022-11-12T16:36:51;10.40;99.90
25512;DHT22;13414;44.534;18.700;2022-11-12T16:39:37;10.30;99.90
25512;DHT22;13414;44.534;18.700;2022-11-12T16:42:23;10.40;99.90
25512;DHT22;13414;44.534;18.700;2022-11-12T16:45:10;10.40;99.90
25512;DHT22;13414;44.534;18.700;2022-11-12T16:47:55;10.40;99.90
25512;DHT22;13414;44.534;18.700;2022-11-12T16:50:41;10.40;99.90
25512;DHT22;13414;44.534;18.700;2022-11-12T16:53:26;10.40;99.90
25512;DHT22;13414;44.534;18.700;2022-11-12T16:56:12;10.40;99.90
25512;DHT22;13414;44.534;18.700;2022-11-12T16:58:59;10.30;99.90
25512;DHT22;13414;44.534;18.700;2022-11-12T17:01:46;10.20;99.90
25512;DHT22;13414;44.534;18.700;2022-11-12T17:04:32;10.10;99.90
25512;DHT22;13414;44.534;18.700;2022-11-12T17:07:18;10.00;99.90
25512;DHT22;13414;44.534;18.700;2022-11-12T17:10:04;9.90;99.90
25512;DHT22;13414;44.534;18.700;2022-11-12T17:12:50;9.80;99.90
25512;DHT22;13414;44.534;18.700;2022-11-12T17:15:35;9.80;99.90
25512;DHT22;13414;44.534;18.700;2022-11-12T17:18:22;9.70;99.90
25512;DHT22;13414;44.534;18.700;2022-11-12T17:21:09;9.70;99.90
25512;DHT22;13414;44.534;18.700;2022-11-12T17:23:55;9.80;99.90
25512;DHT22;13414;44.534;18.700;2022-11-12T17:26:41;9.80;99.90
25512;DHT22;13414;44.534;18.700;2022-11-12T17:29:26;9.80;99.90
25512;DHT22;13414;44.534;18.700;2022-11-12T17:32:12;9.80;99.90
25512;DHT22;13414;44.534;18.700;2022-11-12T17:34:59;9.80;99.90
25512;DHT22;13414;44.534;18.700;2022-11-12T17:37:45;9.70;99.90
25512;DHT22;13414;44.534;18.700;2022-11-12T17:40:31;9.60;99.90
25512;DHT22;13414;44.534;18.700;2022-11-12T17:43:17;9.40;99.90
25512;DHT22;13414;44.534;18.700;2022-11-12T17:46:03;9.30;99.90
25512;DHT22;13414;44.534;18.700;2022-11-12T17:48:49;9.20;99.90